createdAt,value
2019-04-28T00:01:07.487Z,21.80
2019-04-28T00:03:38.832Z,17.77
2019-04-28T00:06:11.035Z,22.77
2019-04-28T00:08:43.401Z,16.83
2019-04-28T00:11:14.590Z,21.20
2019-04-28T00:13:45.792Z,20.77
2019-04-28T00:16:17.092Z,21.77
2019-04-28T00:18:52.405Z,24.60
2019-04-28T00:21:48.846Z,15.80
2019-04-28T00:24:54.539Z,19.23
2019-04-28T00:27:25.818Z,19.03
2019-04-28T00:29:57.166Z,15.10
2019-04-28T00:32:28.677Z,19.30
2019-04-28T00:34:59.695Z,18.50
2019-04-28T00:37:33.565Z,24.17
2019-04-28T00:40:06.000Z,20.10
2019-04-28T00:42:37.314Z,21.10
2019-04-28T00:45:11.403Z,26.57
2019-04-28T00:47:43.555Z,31.23
2019-04-28T00:50:15.977Z,26.60
2019-04-28T00:52:47.345Z,23.70
2019-04-28T00:55:18.620Z,22.37
2019-04-28T00:57:50.949Z,25.10
2019-04-28T01:00:24.977Z,20.27
2019-04-28T01:02:56.656Z,20.17
2019-04-28T01:05:27.932Z,23.93
2019-04-28T01:08:01.155Z,17.70
2019-04-28T01:10:33.889Z,19.23
2019-04-28T01:13:06.030Z,25.25
2019-04-28T01:16:06.812Z,20.87
2019-04-28T01:18:43.693Z,17.97
2019-04-28T01:21:15.151Z,16.77
2019-04-28T01:23:46.928Z,24.20
2019-04-28T01:26:29.997Z,28.13
2019-04-28T01:29:01.422Z,21.90
2019-04-28T01:31:43.207Z,19.23
2019-04-28T01:34:22.417Z,23.53
2019-04-28T01:36:53.952Z,18.60
2019-04-28T01:39:25.232Z,24.90
2019-04-28T01:41:56.635Z,26.67
2019-04-28T01:44:29.646Z,24.80
2019-04-28T01:47:01.184Z,18.50
2019-04-28T01:49:32.832Z,23.33
2019-04-28T01:52:04.211Z,21.60
2019-04-28T01:54:35.450Z,21.23
2019-04-28T01:57:06.323Z,25.40
2019-04-28T01:59:37.488Z,25.00
2019-04-28T02:02:10.237Z,35.13
2019-04-28T02:04:41.627Z,25.80
2019-04-28T02:07:12.871Z,23.00
2019-04-28T02:09:44.232Z,25.37
2019-04-28T02:12:17.047Z,31.43
2019-04-28T02:14:49.990Z,27.63
2019-04-28T02:17:21.301Z,36.63
2019-04-28T02:19:52.544Z,41.73
2019-04-28T02:22:29.955Z,23.57
2019-04-28T02:25:01.767Z,32.63
2019-04-28T02:27:33.376Z,37.47
2019-04-28T02:30:05.927Z,33.00
2019-04-28T02:32:40.534Z,35.60
2019-04-28T02:35:11.191Z,35.87
2019-04-28T02:37:42.330Z,39.70
2019-04-28T02:40:13.887Z,40.10
2019-04-28T02:42:45.532Z,36.33
2019-04-28T02:45:22.017Z,29.80
2019-04-28T02:47:57.477Z,31.87
2019-04-28T02:50:47.727Z,37.87
2019-04-28T02:53:33.105Z,32.37
2019-04-28T02:56:02.988Z,28.03
2019-04-28T02:58:34.326Z,29.60
2019-04-28T03:01:13.071Z,34.10
2019-04-28T03:03:40.800Z,32.90
2019-04-28T03:06:12.055Z,29.67
2019-04-28T03:08:43.541Z,35.50
2019-04-28T03:11:14.802Z,31.80
2019-04-28T03:13:46.161Z,27.27
2019-04-28T03:16:17.301Z,29.30
2019-04-28T03:18:51.199Z,27.30
2019-04-28T03:21:21.603Z,29.80
2019-04-28T03:23:56.733Z,26.63
2019-04-28T03:26:50.909Z,28.80
2019-04-28T03:29:32.750Z,37.20
2019-04-28T03:32:30.152Z,25.47
2019-04-28T03:34:53.081Z,30.13
2019-04-28T03:37:24.173Z,32.33
2019-04-28T03:39:54.907Z,26.57
2019-04-28T03:42:26.077Z,30.10
2019-04-28T03:45:01.003Z,41.43
2019-04-28T03:47:31.932Z,32.43
2019-04-28T03:50:02.818Z,37.20
2019-04-28T03:52:34.079Z,29.90
2019-04-28T03:55:05.046Z,23.93
2019-04-28T03:57:36.367Z,26.83
2019-04-28T04:00:10.840Z,26.00
2019-04-28T04:02:41.475Z,32.87
2019-04-28T04:05:12.765Z,23.40
2019-04-28T04:07:44.016Z,22.27
2019-04-28T04:10:44.318Z,25.00
2019-04-28T04:13:32.421Z,26.10
2019-04-28T04:16:40.462Z,23.10
2019-04-28T04:19:12.164Z,26.10
2019-04-28T04:21:43.810Z,36.40
2019-04-28T04:24:15.146Z,28.70
2019-04-28T04:26:46.489Z,27.47
2019-04-28T04:29:17.575Z,26.23
2019-04-28T04:31:51.075Z,26.20
2019-04-28T04:34:21.838Z,23.73
2019-04-28T04:36:53.082Z,24.33
2019-04-28T04:39:30.156Z,27.83
2019-04-28T04:42:02.407Z,23.57
2019-04-28T04:44:37.547Z,18.87
2019-04-28T04:47:06.621Z,23.42
2019-04-28T04:49:40.307Z,22.60
2019-04-28T04:52:11.086Z,22.57
2019-04-28T04:54:42.499Z,19.90
2019-04-28T04:57:14.098Z,21.53
2019-04-28T04:59:45.528Z,17.87
2019-04-28T05:02:51.243Z,17.40
2019-04-28T05:05:21.539Z,16.90
2019-04-28T05:07:52.655Z,18.40
2019-04-28T05:10:23.743Z,17.80
2019-04-28T05:12:55.235Z,21.00
2019-04-28T05:15:26.567Z,21.90
2019-04-28T05:17:57.747Z,23.10
2019-04-28T05:20:30.237Z,32.77
2019-04-28T05:23:09.585Z,18.23
2019-04-28T05:25:42.632Z,20.20
2019-04-28T05:28:14.283Z,15.70
2019-04-28T05:30:45.539Z,19.70
2019-04-28T05:33:33.380Z,20.80
2019-04-28T05:36:03.133Z,17.70
2019-04-28T05:38:34.503Z,19.57
2019-04-28T05:41:05.903Z,19.48
2019-04-28T05:43:37.300Z,19.87
2019-04-28T05:46:10.565Z,22.37
2019-04-28T05:48:54.517Z,21.50
2019-04-28T05:51:27.516Z,22.73
2019-04-28T05:54:10.856Z,16.90
2019-04-28T05:57:02.466Z,18.63
2019-04-28T05:59:46.841Z,21.40
2019-04-28T06:02:23.306Z,21.93
2019-04-28T06:04:54.821Z,15.50
2019-04-28T06:07:34.641Z,18.20
2019-04-28T06:10:06.036Z,19.37
2019-04-28T06:12:37.214Z,18.33
2019-04-28T06:15:10.387Z,18.80
2019-04-28T06:17:41.442Z,21.77
2019-04-28T06:20:12.729Z,17.60
2019-04-28T06:22:43.916Z,14.07
2019-04-28T06:25:15.277Z,18.03
2019-04-28T06:27:49.881Z,12.67
2019-04-28T06:30:21.460Z,12.30
2019-04-28T06:32:52.639Z,13.73
2019-04-28T06:35:23.976Z,16.37
2019-04-28T06:37:55.197Z,15.57
2019-04-28T06:40:26.518Z,16.60
2019-04-28T06:42:57.768Z,15.17
2019-04-28T06:45:29.714Z,18.70
2019-04-28T06:48:00.761Z,17.00
2019-04-28T06:50:32.059Z,17.20
2019-04-28T06:53:03.335Z,17.70
2019-04-28T06:55:34.765Z,17.20
2019-04-28T06:58:06.037Z,16.03
2019-04-28T07:00:37.388Z,15.63
2019-04-28T07:03:17.010Z,19.73
2019-04-28T07:05:41.422Z,23.20
2019-04-28T07:08:14.001Z,22.27
2019-04-28T07:10:45.140Z,16.53
2019-04-28T07:13:16.562Z,16.67
2019-04-28T07:15:48.008Z,16.40
2019-04-28T07:18:19.417Z,18.20
2019-04-28T07:21:13.206Z,15.87
2019-04-28T07:23:44.545Z,19.83
2019-04-28T07:26:15.806Z,16.10
2019-04-28T07:28:47.453Z,18.97
2019-04-28T07:31:20.132Z,16.90
2019-04-28T07:33:51.336Z,15.17
2019-04-28T07:36:24.356Z,13.77
2019-04-28T07:38:55.707Z,13.77
2019-04-28T07:41:26.919Z,11.33
2019-04-28T07:43:58.654Z,14.40
2019-04-28T07:46:29.943Z,11.80
2019-04-28T07:49:00.847Z,14.10
2019-04-28T07:51:51.439Z,11.33
2019-04-28T07:54:23.288Z,12.10
2019-04-28T07:56:54.402Z,10.43
2019-04-28T07:59:25.893Z,7.30
2019-04-28T08:01:57.324Z,8.33
2019-04-28T08:04:28.776Z,11.60
2019-04-28T08:06:59.682Z,13.97
2019-04-28T08:09:32.057Z,10.43
2019-04-28T08:12:03.344Z,9.50
2019-04-28T08:14:34.583Z,6.47
2019-04-28T08:17:05.796Z,11.10
2019-04-28T08:19:37.953Z,10.00
2019-04-28T08:22:21.080Z,7.90
2019-04-28T08:24:52.252Z,10.97
2019-04-28T08:27:23.521Z,10.07
2019-04-28T08:29:58.816Z,11.20
2019-04-28T08:32:39.051Z,16.83
2019-04-28T08:35:10.364Z,13.90
2019-04-28T08:37:41.627Z,10.33
2019-04-28T08:40:12.978Z,23.07
2019-04-28T08:42:44.195Z,13.20
2019-04-28T08:45:15.880Z,13.60
2019-04-28T08:47:47.392Z,19.80
2019-04-28T08:50:18.666Z,17.57
2019-04-28T08:52:49.992Z,17.43
2019-04-28T08:55:21.319Z,14.23
2019-04-28T08:57:52.561Z,12.43
2019-04-28T09:00:24.060Z,13.83
2019-04-28T09:02:55.389Z,11.27
2019-04-28T09:05:26.920Z,17.83
2019-04-28T09:07:57.795Z,23.63
2019-04-28T09:10:29.103Z,19.03
2019-04-28T09:13:00.092Z,13.70
2019-04-28T09:15:31.249Z,20.83
2019-04-28T09:18:02.164Z,17.57
2019-04-28T09:20:33.473Z,17.00
2019-04-28T09:23:04.870Z,19.77
2019-04-28T09:25:36.134Z,13.80
2019-04-28T09:28:07.378Z,22.10
2019-04-28T09:30:39.457Z,23.60
2019-04-28T09:33:12.959Z,19.27
2019-04-28T09:35:44.132Z,17.43
2019-04-28T09:38:15.466Z,11.43
2019-04-28T09:40:46.888Z,21.83
2019-04-28T09:43:43.637Z,14.77
2019-04-28T09:46:24.856Z,16.70
2019-04-28T09:48:56.335Z,22.33
2019-04-28T09:51:28.063Z,19.37
2019-04-28T09:54:00.543Z,16.13
2019-04-28T09:56:32.755Z,17.87
2019-04-28T09:59:03.668Z,26.20
2019-04-28T10:01:35.198Z,19.60
2019-04-28T10:04:06.437Z,19.07
2019-04-28T10:06:37.637Z,14.97
2019-04-28T10:09:09.329Z,18.70
2019-04-28T10:11:40.650Z,14.47
2019-04-28T10:14:12.173Z,17.17
2019-04-28T10:16:43.724Z,15.40
2019-04-28T10:19:15.701Z,28.73
2019-04-28T10:21:47.020Z,13.53
2019-04-28T10:24:18.491Z,12.93
2019-04-28T10:26:49.632Z,13.67
2019-04-28T10:29:20.877Z,21.40
2019-04-28T10:31:51.977Z,15.27
2019-04-28T10:34:23.394Z,22.57
2019-04-28T10:36:54.664Z,10.73
2019-04-28T10:39:30.440Z,14.80
2019-04-28T10:42:01.506Z,8.03
2019-04-28T10:44:34.622Z,13.23
2019-04-28T10:47:06.004Z,12.90
2019-04-28T10:49:37.539Z,16.40
2019-04-28T10:52:08.694Z,14.83
2019-04-28T10:54:40.000Z,13.00
2019-04-28T10:57:11.392Z,13.90
2019-04-28T10:59:42.670Z,16.97
2019-04-28T11:02:15.273Z,7.53
2019-04-28T11:04:51.474Z,15.00
2019-04-28T11:07:23.235Z,14.80
2019-04-28T11:10:14.488Z,16.33
2019-04-28T11:12:46.572Z,8.47
2019-04-28T11:15:29.669Z,10.10
2019-04-28T11:18:02.399Z,13.40
2019-04-28T11:20:34.365Z,20.07
2019-04-28T11:23:05.647Z,15.10
2019-04-28T11:25:37.035Z,15.00
2019-04-28T11:28:09.349Z,7.60
2019-04-28T11:30:41.561Z,14.67
2019-04-28T11:33:30.510Z,9.20
2019-04-28T11:36:02.144Z,16.73
2019-04-28T11:38:35.447Z,13.40
2019-04-28T11:41:07.377Z,12.10
2019-04-28T11:43:39.407Z,13.13
2019-04-28T11:46:12.160Z,14.07
2019-04-28T11:48:43.725Z,16.93
2019-04-28T11:51:14.956Z,13.80
2019-04-28T11:53:46.876Z,12.50
2019-04-28T11:56:18.660Z,13.40
2019-04-28T11:58:50.007Z,17.67
2019-04-28T12:01:22.862Z,11.03
2019-04-28T12:03:57.248Z,15.63
2019-04-28T12:06:32.233Z,11.10
2019-04-28T12:09:21.352Z,18.80
2019-04-28T12:11:53.464Z,16.50
2019-04-28T12:14:34.956Z,15.00
2019-04-28T12:17:25.323Z,12.50
2019-04-28T12:20:11.156Z,11.17
2019-04-28T12:22:42.684Z,20.83
2019-04-28T12:25:14.049Z,11.65
2019-04-28T12:27:45.723Z,20.97
2019-04-28T12:30:17.492Z,21.73
2019-04-28T12:32:49.841Z,15.60
2019-04-28T12:35:21.128Z,17.20
2019-04-28T12:37:52.118Z,13.70
2019-04-28T12:40:23.623Z,20.33
2019-04-28T12:42:54.926Z,21.73
2019-04-28T12:45:34.828Z,11.37
2019-04-28T12:48:00.274Z,20.30
2019-04-28T12:50:36.826Z,18.53
2019-04-28T12:53:07.855Z,12.40
2019-04-28T12:55:39.161Z,13.33
2019-04-28T12:58:10.458Z,20.57
2019-04-28T13:01:00.431Z,18.10
2019-04-28T13:03:39.659Z,15.30
2019-04-28T13:06:13.724Z,12.43
2019-04-28T13:08:45.807Z,11.07
2019-04-28T13:11:17.072Z,11.30
2019-04-28T13:13:50.635Z,10.43
2019-04-28T13:16:21.624Z,15.03
2019-04-28T13:18:54.219Z,21.93
2019-04-28T13:21:25.541Z,13.60
2019-04-28T13:23:56.931Z,9.77
2019-04-28T13:26:28.421Z,17.73
2019-04-28T13:29:00.878Z,10.20
2019-04-28T13:31:32.362Z,18.23
2019-04-28T13:34:04.436Z,15.13
2019-04-28T13:36:35.861Z,15.10
2019-04-28T13:39:11.212Z,17.80
2019-04-28T13:41:42.895Z,18.17
2019-04-28T13:44:17.177Z,12.68
2019-04-28T13:46:48.234Z,14.97
2019-04-28T13:49:20.997Z,13.90
2019-04-28T13:51:52.289Z,18.17
2019-04-28T13:54:34.922Z,19.03
2019-04-28T13:57:05.810Z,16.27
2019-04-28T13:59:37.261Z,15.53
2019-04-28T14:02:30.252Z,15.83
2019-04-28T14:05:37.626Z,15.40
2019-04-28T14:08:08.757Z,14.53
2019-04-28T14:10:40.101Z,26.00
2019-04-28T14:13:11.447Z,17.13
2019-04-28T14:15:42.827Z,10.93
2019-04-28T14:18:14.003Z,19.10
2019-04-28T14:20:45.507Z,19.23
2019-04-28T14:23:16.789Z,18.80
2019-04-28T14:25:50.372Z,21.20
2019-04-28T14:28:22.158Z,19.30
2019-04-28T14:30:53.460Z,24.40
2019-04-28T14:33:24.756Z,14.43
2019-04-28T14:35:56.323Z,21.83
2019-04-28T14:38:28.253Z,23.23
2019-04-28T14:41:00.209Z,20.37
2019-04-28T14:43:32.075Z,15.13
2019-04-28T14:46:03.140Z,25.33
2019-04-28T14:48:34.768Z,15.70
2019-04-28T14:51:07.913Z,21.30
2019-04-28T14:53:40.056Z,17.93
2019-04-28T14:56:11.971Z,17.13
2019-04-28T14:58:44.066Z,17.27
2019-04-28T15:01:52.779Z,15.93
2019-04-28T15:04:31.041Z,14.40
2019-04-28T15:07:10.208Z,18.50
2019-04-28T15:10:10.024Z,23.47
2019-04-28T15:12:42.636Z,26.60
2019-04-28T15:15:14.028Z,20.33
2019-04-28T15:17:45.343Z,23.10
2019-04-28T15:20:16.880Z,23.37
2019-04-28T15:22:48.408Z,13.93
2019-04-28T15:25:20.328Z,23.53
2019-04-28T15:27:52.211Z,17.40
2019-04-28T15:30:23.785Z,37.47
2019-04-28T15:32:55.237Z,16.53
2019-04-28T15:35:26.966Z,19.47
2019-04-28T15:37:58.298Z,25.33
2019-04-28T15:40:29.903Z,16.67
2019-04-28T15:43:01.245Z,28.10
2019-04-28T15:45:32.477Z,16.03
2019-04-28T15:48:03.919Z,30.83
2019-04-28T15:50:35.177Z,19.20
2019-04-28T15:53:06.550Z,20.83
2019-04-28T15:55:43.850Z,18.40
2019-04-28T15:58:35.604Z,15.80
2019-04-28T16:01:06.976Z,19.80
2019-04-28T16:03:38.334Z,23.67
2019-04-28T16:06:09.205Z,20.97
2019-04-28T16:08:40.965Z,12.90
2019-04-28T16:11:12.393Z,18.87
2019-04-28T16:13:43.780Z,27.00
2019-04-28T16:16:15.613Z,21.50
2019-04-28T16:18:47.188Z,17.90
2019-04-28T16:21:18.461Z,17.70
2019-04-28T16:23:49.873Z,15.80
2019-04-28T16:26:23.047Z,18.23
2019-04-28T16:28:54.625Z,19.73
2019-04-28T16:31:26.009Z,22.90
2019-04-28T16:33:57.542Z,21.93
2019-04-28T16:36:29.090Z,20.87
2019-04-28T16:39:00.678Z,19.07
2019-04-28T16:41:35.105Z,14.73
2019-04-28T16:44:13.116Z,27.43
2019-04-28T16:46:44.698Z,15.00
2019-04-28T16:49:16.570Z,19.83
2019-04-28T16:51:48.298Z,18.73
2019-04-28T16:54:21.063Z,23.50
2019-04-28T16:57:11.471Z,22.00
2019-04-28T16:59:56.208Z,23.33
2019-04-28T17:02:32.131Z,21.80
2019-04-28T17:05:03.426Z,21.03
2019-04-28T17:07:34.956Z,21.90
2019-04-28T17:10:06.647Z,25.77
2019-04-28T17:12:38.100Z,21.60
2019-04-28T17:15:10.255Z,24.70
2019-04-28T17:17:42.138Z,22.07
2019-04-28T17:20:13.889Z,19.50
2019-04-28T17:22:45.443Z,19.70
2019-04-28T17:25:17.087Z,17.87
2019-04-28T17:27:48.709Z,22.30
2019-04-28T17:30:20.243Z,21.77
2019-04-28T17:32:51.918Z,27.17
2019-04-28T17:35:23.706Z,25.17
2019-04-28T17:38:07.161Z,23.43
2019-04-28T17:40:39.334Z,28.23
2019-04-28T17:43:11.184Z,27.93
2019-04-28T17:45:43.050Z,24.43
2019-04-28T17:48:22.838Z,21.27
2019-04-28T17:50:54.142Z,20.93
2019-04-28T17:53:25.816Z,16.43
2019-04-28T17:55:57.177Z,24.90
2019-04-28T17:58:29.955Z,15.83
2019-04-28T18:01:26.434Z,21.20
2019-04-28T18:04:26.352Z,27.73
2019-04-28T18:07:05.361Z,32.70
2019-04-28T18:09:37.119Z,22.60
2019-04-28T18:12:09.668Z,16.63
2019-04-28T18:14:42.678Z,19.20
2019-04-28T18:17:48.563Z,19.80
2019-04-28T18:20:20.333Z,15.40
2019-04-28T18:22:52.050Z,24.93
2019-04-28T18:25:24.045Z,19.23
2019-04-28T18:27:56.246Z,20.47
2019-04-28T18:30:29.486Z,17.97
2019-04-28T18:33:20.173Z,16.80
2019-04-28T18:35:55.954Z,22.53
2019-04-28T18:38:36.814Z,24.57
2019-04-28T18:41:36.039Z,29.93
2019-04-28T18:44:19.517Z,26.27
2019-04-28T18:46:51.111Z,23.33
2019-04-28T18:49:22.551Z,22.63
2019-04-28T18:51:54.397Z,25.83
2019-04-28T18:54:26.812Z,22.93
2019-04-28T18:56:58.485Z,29.13
2019-04-28T18:59:30.119Z,20.33
2019-04-28T19:02:26.790Z,25.40
2019-04-28T19:04:58.227Z,33.20
2019-04-28T19:08:00.799Z,25.37
2019-04-28T19:10:45.714Z,27.83
2019-04-28T19:13:20.943Z,18.77
2019-04-28T19:16:10.080Z,28.20
2019-04-28T19:18:43.189Z,26.33
2019-04-28T19:21:14.921Z,27.27
2019-04-28T19:23:46.677Z,21.80
2019-04-28T19:26:18.043Z,27.50
2019-04-28T19:28:49.706Z,24.40
2019-04-28T19:31:21.334Z,21.87
2019-04-28T19:33:52.663Z,19.40
2019-04-28T19:36:23.952Z,27.33
2019-04-28T19:39:03.092Z,41.33
2019-04-28T19:41:28.904Z,37.90
2019-04-28T19:44:07.945Z,29.00
2019-04-28T19:46:39.594Z,17.23
2019-04-28T19:49:10.933Z,20.47
2019-04-28T19:51:42.484Z,18.30
2019-04-28T19:54:14.634Z,31.27
2019-04-28T19:56:51.641Z,24.87
2019-04-28T19:59:27.188Z,22.77
2019-04-28T20:01:58.686Z,38.07
2019-04-28T20:04:31.661Z,17.80
2019-04-28T20:07:05.248Z,22.00
2019-04-28T20:09:36.639Z,20.67
2019-04-28T20:12:07.677Z,28.70
2019-04-28T20:14:38.894Z,18.00
2019-04-28T20:17:10.209Z,19.53
2019-04-28T20:19:41.383Z,23.17
2019-04-28T20:22:12.999Z,26.93
2019-04-28T20:24:47.205Z,22.80
2019-04-28T20:27:18.018Z,22.97
2019-04-28T20:29:49.362Z,20.10
2019-04-28T20:32:20.752Z,21.17
2019-04-28T20:34:52.574Z,26.87
2019-04-28T20:37:30.627Z,24.77
2019-04-28T20:40:05.496Z,28.33
2019-04-28T20:42:46.235Z,19.17
2019-04-28T20:45:17.721Z,19.83
2019-04-28T20:47:49.336Z,12.70
2019-04-28T20:50:20.820Z,22.63
2019-04-28T20:52:52.674Z,23.70
2019-04-28T20:55:24.147Z,24.77
2019-04-28T20:57:55.743Z,22.30
2019-04-28T21:00:27.022Z,14.60
2019-04-28T21:02:58.767Z,20.00
2019-04-28T21:05:30.137Z,18.73
2019-04-28T21:08:04.018Z,25.27
2019-04-28T21:10:38.269Z,24.70
2019-04-28T21:13:08.189Z,21.13
2019-04-28T21:15:39.356Z,22.63
2019-04-28T21:18:10.589Z,31.13
2019-04-28T21:20:41.942Z,24.40
2019-04-28T21:23:13.209Z,20.90
2019-04-28T21:25:45.480Z,25.63
2019-04-28T21:28:16.715Z,21.77
2019-04-28T21:30:48.188Z,29.30
2019-04-28T21:33:19.421Z,29.87
2019-04-28T21:35:50.748Z,13.80
2019-04-28T21:38:22.057Z,18.30
2019-04-28T21:40:53.452Z,16.30
2019-04-28T21:43:52.814Z,17.17
2019-04-28T21:46:32.204Z,38.47
2019-04-28T21:49:43.706Z,21.23
2019-04-28T21:52:15.200Z,34.93
2019-04-28T21:54:46.708Z,26.87
2019-04-28T21:57:17.550Z,17.10
2019-04-28T21:59:48.468Z,14.97
2019-04-28T22:02:20.712Z,18.77
2019-04-28T22:04:51.718Z,15.10
2019-04-28T22:07:22.771Z,20.80
2019-04-28T22:09:53.764Z,19.83
2019-04-28T22:12:24.687Z,28.10
2019-04-28T22:14:55.600Z,19.60
2019-04-28T22:17:26.456Z,20.80
2019-04-28T22:19:57.438Z,18.77
2019-04-28T22:22:28.311Z,25.97
2019-04-28T22:25:13.542Z,25.60
2019-04-28T22:27:44.446Z,22.63
2019-04-28T22:30:15.724Z,17.43
2019-04-28T22:32:46.748Z,18.40
2019-04-28T22:35:17.940Z,20.10
2019-04-28T22:37:48.847Z,22.50
2019-04-28T22:40:19.811Z,21.27
2019-04-28T22:42:50.732Z,19.70
2019-04-28T22:45:21.897Z,22.60
2019-04-28T22:47:52.850Z,24.73
2019-04-28T22:50:39.287Z,23.73
2019-04-28T22:53:10.505Z,19.63
2019-04-28T22:55:46.822Z,24.57
2019-04-28T22:58:24.235Z,30.20
2019-04-28T23:01:02.543Z,16.77
2019-04-28T23:03:41.874Z,23.43
2019-04-28T23:06:13.524Z,24.63
2019-04-28T23:08:44.410Z,17.43
2019-04-28T23:11:15.904Z,21.37
2019-04-28T23:13:46.848Z,14.10
2019-04-28T23:16:18.045Z,26.63
2019-04-28T23:18:49.060Z,16.07
2019-04-28T23:21:43.057Z,13.13
2019-04-28T23:24:14.099Z,27.10
2019-04-28T23:26:44.984Z,14.57
2019-04-28T23:29:15.848Z,15.90
2019-04-28T23:31:46.786Z,22.43
2019-04-28T23:34:18.907Z,18.80
2019-04-28T23:36:49.970Z,16.83
2019-04-28T23:39:20.942Z,15.73
2019-04-28T23:42:02.521Z,18.70
2019-04-28T23:44:33.704Z,15.07
2019-04-28T23:47:06.355Z,21.40
2019-04-28T23:49:37.326Z,22.30
2019-04-28T23:52:25.357Z,26.73
2019-04-28T23:55:00.072Z,20.67
2019-04-28T23:57:31.352Z,22.23
